Saltar para o conteúdo principal

Fundão

ID 1210698 · 40.1406, -7.5536 mapa

Última leitura · 2026-05-09 19:00 (Europe/Lisbon)

Temperatura
10.5 °C
Humidade
90 %
Pressão
Precipitação
7.6 mm
Radiação
136 W/m²
Velocidade do vento
9.0 km/h
Direcção do vento
W · Oeste

Histórico de 24 horas

Hora (Europe/Lisbon) Temperatura Humidade Pressão Chuva Vento Direcção
2026-05-09 19:00 10.5 °C 90 % 7.6 mm 9.0 km/h W
2026-05-09 18:00 11.9 °C 87 % 7.3 mm 5.8 km/h SW
2026-05-09 17:00 15.4 °C 64 % 0.2 mm 12.6 km/h NW
2026-05-09 16:00 16.2 °C 66 % 0.1 mm 12.2 km/h S
2026-05-09 15:00 13.6 °C 90 % 0.1 mm 6.8 km/h W
2026-05-09 14:00 11.0 °C 96 % 2.1 mm 3.6 km/h N
2026-05-09 13:00 11.5 °C 95 % 1.5 mm 12.6 km/h SE
2026-05-09 12:00 11.0 °C 95 % 2.2 mm 12.6 km/h SE
2026-05-09 11:00 10.3 °C 94 % 3.5 mm 9.7 km/h SE
2026-05-09 10:00 10.6 °C 92 % 5.0 mm 16.2 km/h SE
2026-05-09 09:00 12.2 °C 78 % 0.0 mm 10.8 km/h SE
2026-05-09 08:00 11.8 °C 77 % 0.1 mm 16.6 km/h SE
2026-05-09 07:00 11.6 °C 81 % 0.0 mm 14.4 km/h SE
2026-05-09 06:00 11.6 °C 84 % 0.0 mm 11.9 km/h SE
2026-05-09 05:00 12.0 °C 84 % 0.1 mm 7.9 km/h E
2026-05-09 04:00 12.2 °C 78 % 0.1 mm 10.1 km/h SE
2026-05-09 03:00 12.4 °C 78 % 0.1 mm 7.2 km/h SE
2026-05-09 02:00 13.3 °C 72 % 0.0 mm 10.4 km/h S
2026-05-09 01:00 13.3 °C 72 % 0.0 mm 7.6 km/h SW
2026-05-09 00:00 14.8 °C 59 % 0.0 mm 12.2 km/h SW
2026-05-08 23:00 14.8 °C 56 % 0.0 mm 8.6 km/h SW
2026-05-08 22:00 14.7 °C 56 % 0.0 mm 4.0 km/h W
2026-05-08 21:00 15.7 °C 50 % 0.0 mm 3.2 km/h E
2026-05-08 20:00 16.7 °C 43 % 0.0 mm 5.8 km/h E